sensor_id;sensor_type;location;lat;lon;timestamp;P1;durP1;ratioP1;P2;durP2;ratioP2
29712;SDS011;16623;53.632;10.016;2022-09-09T00:04:30;98.10;;;29.48;;
29712;SDS011;16623;53.632;10.016;2022-09-09T00:07:03;68.53;;;30.98;;
29712;SDS011;16623;53.632;10.016;2022-09-09T00:10:06;70.75;;;30.83;;
29712;SDS011;16623;53.632;10.016;2022-09-09T00:12:43;72.82;;;28.60;;
29712;SDS011;16623;53.632;10.016;2022-09-09T00:15:33;58.03;;;32.50;;
29712;SDS011;16623;53.632;10.016;2022-09-09T00:18:17;66.68;;;33.25;;
29712;SDS011;16623;53.632;10.016;2022-09-09T00:20:52;60.75;;;33.20;;
29712;SDS011;16623;53.632;10.016;2022-09-09T00:26:16;100.63;;;36.25;;
29712;SDS011;16623;53.632;10.016;2022-09-09T00:29:00;84.43;;;35.95;;
29712;SDS011;16623;53.632;10.016;2022-09-09T00:31:44;140.75;;;36.55;;
29712;SDS011;16623;53.632;10.016;2022-09-09T00:34:23;65.28;;;34.88;;
29712;SDS011;16623;53.632;10.016;2022-09-09T00:36:52;89.88;;;35.80;;
29712;SDS011;16623;53.632;10.016;2022-09-09T00:39:27;100.15;;;37.88;;
29712;SDS011;16623;53.632;10.016;2022-09-09T00:47:48;69.90;;;35.90;;
29712;SDS011;16623;53.632;10.016;2022-09-09T00:52:53;81.53;;;38.03;;
29712;SDS011;16623;53.632;10.016;2022-09-09T00:58:31;86.18;;;40.63;;
29712;SDS011;16623;53.632;10.016;2022-09-09T01:01:02;97.43;;;45.67;;
29712;SDS011;16623;53.632;10.016;2022-09-09T01:03:34;95.45;;;44.92;;
29712;SDS011;16623;53.632;10.016;2022-09-09T01:06:01;100.10;;;43.78;;
29712;SDS011;16623;53.632;10.016;2022-09-09T01:08:40;95.90;;;44.75;;
29712;SDS011;16623;53.632;10.016;2022-09-09T01:11:26;112.43;;;46.72;;
29712;SDS011;16623;53.632;10.016;2022-09-09T01:14:19;98.28;;;44.50;;
29712;SDS011;16623;53.632;10.016;2022-09-09T01:16:58;92.97;;;44.05;;
29712;SDS011;16623;53.632;10.016;2022-09-09T01:22:11;90.90;;;44.17;;
29712;SDS011;16623;53.632;10.016;2022-09-09T01:27:50;88.72;;;42.83;;
29712;SDS011;16623;53.632;10.016;2022-09-09T01:30:19;91.90;;;43.08;;
29712;SDS011;16623;53.632;10.016;2022-09-09T01:32:50;89.88;;;42.80;;
29712;SDS011;16623;53.632;10.016;2022-09-09T01:37:57;90.57;;;38.17;;
29712;SDS011;16623;53.632;10.016;2022-09-09T01:40:24;83.97;;;38.15;;
29712;SDS011;16623;53.632;10.016;2022-09-09T01:42:50;79.45;;;37.03;;
29712;SDS011;16623;53.632;10.016;2022-09-09T01:45:16;79.47;;;37.40;;
29712;SDS011;16623;53.632;10.016;2022-09-09T01:47:42;79.45;;;37.00;;
29712;SDS011;16623;53.632;10.016;2022-09-09T01:50:10;70.60;;;35.75;;
29712;SDS011;16623;53.632;10.016;2022-09-09T01:52:38;76.90;;;36.60;;
29712;SDS011;16623;53.632;10.016;2022-09-09T01:55:04;81.68;;;38.33;;
29712;SDS011;16623;53.632;10.016;2022-09-09T01:57:33;64.28;;;34.50;;
29712;SDS011;16623;53.632;10.016;2022-09-09T02:02:40;72.13;;;35.42;;
29712;SDS011;16623;53.632;10.016;2022-09-09T02:05:36;82.83;;;35.20;;
29712;SDS011;16623;53.632;10.016;2022-09-09T02:08:17;94.57;;;35.83;;
29712;SDS011;16623;53.632;10.016;2022-09-09T02:10:52;125.25;;;35.30;;
29712;SDS011;16623;53.632;10.016;2022-09-09T02:13:26;96.05;;;37.17;;
29712;SDS011;16623;53.632;10.016;2022-09-09T02:16:00;69.63;;;34.42;;
29712;SDS011;16623;53.632;10.016;2022-09-09T02:18:40;85.53;;;35.38;;
29712;SDS011;16623;53.632;10.016;2022-09-09T02:21:12;128.27;;;35.15;;
29712;SDS011;16623;53.632;10.016;2022-09-09T02:23:39;96.47;;;34.70;;
29712;SDS011;16623;53.632;10.016;2022-09-09T02:26:07;83.45;;;34.80;;
29712;SDS011;16623;53.632;10.016;2022-09-09T02:28:35;61.00;;;31.98;;
29712;SDS011;16623;53.632;10.016;2022-09-09T02:31:03;73.07;;;32.15;;
29712;SDS011;16623;53.632;10.016;2022-09-09T02:33:31;75.43;;;32.15;;
29712;SDS011;16623;53.632;10.016;2022-09-09T02:36:02;122.07;;;35.88;;
29712;SDS011;16623;53.632;10.016;2022-09-09T02:38:33;79.80;;;33.95;;
29712;SDS011;16623;53.632;10.016;2022-09-09T02:41:02;109.40;;;37.28;;
29712;SDS011;16623;53.632;10.016;2022-09-09T02:43:37;65.88;;;31.30;;
29712;SDS011;16623;53.632;10.016;2022-09-09T02:48:40;77.13;;;32.10;;
29712;SDS011;16623;53.632;10.016;2022-09-09T02:51:23;71.30;;;34.30;;
29712;SDS011;16623;53.632;10.016;2022-09-09T02:53:59;64.88;;;33.45;;
29712;SDS011;16623;53.632;10.016;2022-09-09T02:56:39;63.83;;;32.22;;
29712;SDS011;16623;53.632;10.016;2022-09-09T02:59:09;109.38;;;35.13;;
29712;SDS011;16623;53.632;10.016;2022-09-09T03:01:35;79.40;;;35.50;;
29712;SDS011;16623;53.632;10.016;2022-09-09T03:04:00;69.80;;;35.53;;
29712;SDS011;16623;53.632;10.016;2022-09-09T03:06:26;71.63;;;35.70;;
29712;SDS011;16623;53.632;10.016;2022-09-09T03:08:53;65.75;;;35.42;;
29712;SDS011;16623;53.632;10.016;2022-09-09T03:11:18;65.28;;;34.67;;
29712;SDS011;16623;53.632;10.016;2022-09-09T03:13:44;69.68;;;36.15;;
29712;SDS011;16623;53.632;10.016;2022-09-09T03:16:09;63.22;;;33.05;;
29712;SDS011;16623;53.632;10.016;2022-09-09T03:18:35;66.25;;;33.75;;
29712;SDS011;16623;53.632;10.016;2022-09-09T03:21:00;67.88;;;34.17;;
29712;SDS011;16623;53.632;10.016;2022-09-09T03:23:26;72.68;;;33.85;;
29712;SDS011;16623;53.632;10.016;2022-09-09T03:25:52;65.07;;;33.20;;
29712;SDS011;16623;53.632;10.016;2022-09-09T03:28:19;62.85;;;33.80;;
29712;SDS011;16623;53.632;10.016;2022-09-09T03:30:45;71.18;;;33.83;;
29712;SDS011;16623;53.632;10.016;2022-09-09T03:33:11;58.40;;;34.15;;
29712;SDS011;16623;53.632;10.016;2022-09-09T03:35:37;61.75;;;32.13;;
29712;SDS011;16623;53.632;10.016;2022-09-09T03:38:02;57.25;;;32.38;;
29712;SDS011;16623;53.632;10.016;2022-09-09T03:40:28;62.35;;;33.13;;
29712;SDS011;16623;53.632;10.016;2022-09-09T03:42:53;61.20;;;33.17;;
29712;SDS011;16623;53.632;10.016;2022-09-09T03:45:19;55.00;;;31.98;;
29712;SDS011;16623;53.632;10.016;2022-09-09T03:47:45;51.53;;;29.92;;
29712;SDS011;16623;53.632;10.016;2022-09-09T03:50:11;52.17;;;30.17;;
29712;SDS011;16623;53.632;10.016;2022-09-09T03:52:37;54.00;;;31.58;;
29712;SDS011;16623;53.632;10.016;2022-09-09T03:55:04;49.67;;;28.27;;
29712;SDS011;16623;53.632;10.016;2022-09-09T03:57:30;54.45;;;29.10;;
29712;SDS011;16623;53.632;10.016;2022-09-09T03:59:56;50.72;;;29.48;;
29712;SDS011;16623;53.632;10.016;2022-09-09T04:02:22;48.67;;;29.08;;
29712;SDS011;16623;53.632;10.016;2022-09-09T04:04:48;47.58;;;27.40;;
29712;SDS011;16623;53.632;10.016;2022-09-09T04:07:14;54.00;;;28.60;;
29712;SDS011;16623;53.632;10.016;2022-09-09T04:09:40;47.17;;;27.27;;
29712;SDS011;16623;53.632;10.016;2022-09-09T04:12:06;46.42;;;29.50;;
29712;SDS011;16623;53.632;10.016;2022-09-09T04:14:31;45.65;;;27.67;;
29712;SDS011;16623;53.632;10.016;2022-09-09T04:16:57;52.20;;;28.88;;
29712;SDS011;16623;53.632;10.016;2022-09-09T04:19:24;45.08;;;27.27;;
29712;SDS011;16623;53.632;10.016;2022-09-09T04:21:50;44.55;;;26.25;;
29712;SDS011;16623;53.632;10.016;2022-09-09T04:24:16;43.75;;;26.90;;
29712;SDS011;16623;53.632;10.016;2022-09-09T04:26:42;54.72;;;28.80;;
29712;SDS011;16623;53.632;10.016;2022-09-09T04:29:08;45.70;;;24.67;;
29712;SDS011;16623;53.632;10.016;2022-09-09T04:31:33;50.45;;;27.17;;
29712;SDS011;16623;53.632;10.016;2022-09-09T04:33:59;46.88;;;25.75;;
29712;SDS011;16623;53.632;10.016;2022-09-09T04:36:29;46.97;;;27.00;;
29712;SDS011;16623;53.632;10.016;2022-09-09T04:38:56;47.78;;;25.98;;
29712;SDS011;16623;53.632;10.016;2022-09-09T04:41:22;44.10;;;25.50;;
29712;SDS011;16623;53.632;10.016;2022-09-09T04:43:48;43.42;;;26.85;;
29712;SDS011;16623;53.632;10.016;2022-09-09T04:46:14;39.38;;;25.05;;
29712;SDS011;16623;53.632;10.016;2022-09-09T04:48:42;39.88;;;25.88;;
29712;SDS011;16623;53.632;10.016;2022-09-09T04:51:08;41.65;;;24.90;;
29712;SDS011;16623;53.632;10.016;2022-09-09T04:53:37;40.15;;;25.35;;
29712;SDS011;16623;53.632;10.016;2022-09-09T04:56:05;39.92;;;24.02;;
29712;SDS011;16623;53.632;10.016;2022-09-09T04:58:35;42.53;;;24.45;;
29712;SDS011;16623;53.632;10.016;2022-09-09T05:01:11;36.78;;;23.20;;
29712;SDS011;16623;53.632;10.016;2022-09-09T05:03:44;42.90;;;23.90;;
29712;SDS011;16623;53.632;10.016;2022-09-09T05:06:12;37.20;;;22.17;;
29712;SDS011;16623;53.632;10.016;2022-09-09T05:08:40;36.38;;;21.15;;
29712;SDS011;16623;53.632;10.016;2022-09-09T05:11:39;34.60;;;21.13;;
29712;SDS011;16623;53.632;10.016;2022-09-09T05:14:00;35.13;;;19.08;;
29712;SDS011;16623;53.632;10.016;2022-09-09T05:16:26;27.55;;;19.35;;
29712;SDS011;16623;53.632;10.016;2022-09-09T05:18:51;27.45;;;17.80;;
29712;SDS011;16623;53.632;10.016;2022-09-09T05:21:17;27.25;;;17.40;;
29712;SDS011;16623;53.632;10.016;2022-09-09T05:23:46;24.77;;;17.25;;
29712;SDS011;16623;53.632;10.016;2022-09-09T05:26:13;23.23;;;16.42;;
29712;SDS011;16623;53.632;10.016;2022-09-09T05:28:42;25.60;;;15.98;;
29712;SDS011;16623;53.632;10.016;2022-09-09T05:31:09;24.35;;;15.70;;
29712;SDS011;16623;53.632;10.016;2022-09-09T05:33:37;22.90;;;15.13;;
29712;SDS011;16623;53.632;10.016;2022-09-09T05:36:06;21.25;;;15.60;;
29712;SDS011;16623;53.632;10.016;2022-09-09T05:38:33;21.70;;;15.05;;
29712;SDS011;16623;53.632;10.016;2022-09-09T05:41:00;22.67;;;14.95;;
29712;SDS011;16623;53.632;10.016;2022-09-09T05:43:27;19.95;;;15.55;;
29712;SDS011;16623;53.632;10.016;2022-09-09T05:46:10;21.73;;;15.13;;
29712;SDS011;16623;53.632;10.016;2022-09-09T05:48:37;23.33;;;14.57;;
29712;SDS011;16623;53.632;10.016;2022-09-09T05:51:05;23.63;;;14.70;;
29712;SDS011;16623;53.632;10.016;2022-09-09T05:53:33;25.30;;;14.00;;
29712;SDS011;16623;53.632;10.016;2022-09-09T05:56:03;25.60;;;14.90;;
29712;SDS011;16623;53.632;10.016;2022-09-09T05:58:31;21.33;;;14.10;;
29712;SDS011;16623;53.632;10.016;2022-09-09T06:01:00;22.17;;;15.20;;
29712;SDS011;16623;53.632;10.016;2022-09-09T06:03:27;21.27;;;14.77;;
29712;SDS011;16623;53.632;10.016;2022-09-09T06:05:59;24.02;;;15.07;;
29712;SDS011;16623;53.632;10.016;2022-09-09T06:08:28;23.45;;;14.85;;
29712;SDS011;16623;53.632;10.016;2022-09-09T06:11:00;17.98;;;13.10;;
29712;SDS011;16623;53.632;10.016;2022-09-09T06:13:27;19.35;;;14.23;;
29712;SDS011;16623;53.632;10.016;2022-09-09T06:15:53;20.10;;;14.23;;
29712;SDS011;16623;53.632;10.016;2022-09-09T06:18:18;19.88;;;13.57;;
29712;SDS011;16623;53.632;10.016;2022-09-09T06:20:54;16.83;;;12.35;;
29712;SDS011;16623;53.632;10.016;2022-09-09T06:23:25;20.85;;;14.70;;
29712;SDS011;16623;53.632;10.016;2022-09-09T06:25:59;23.52;;;14.00;;
29712;SDS011;16623;53.632;10.016;2022-09-09T06:28:32;19.55;;;13.70;;
29712;SDS011;16623;53.632;10.016;2022-09-09T06:30:58;18.08;;;12.73;;
29712;SDS011;16623;53.632;10.016;2022-09-09T06:33:25;16.85;;;11.70;;
29712;SDS011;16623;53.632;10.016;2022-09-09T06:35:51;19.27;;;12.55;;
29712;SDS011;16623;53.632;10.016;2022-09-09T06:38:18;21.38;;;12.90;;
29712;SDS011;16623;53.632;10.016;2022-09-09T06:40:50;16.85;;;12.73;;
29712;SDS011;16623;53.632;10.016;2022-09-09T06:43:16;23.10;;;11.98;;
29712;SDS011;16623;53.632;10.016;2022-09-09T06:45:42;18.58;;;12.98;;
29712;SDS011;16623;53.632;10.016;2022-09-09T06:48:08;16.38;;;11.60;;
29712;SDS011;16623;53.632;10.016;2022-09-09T06:50:33;12.68;;;10.57;;
29712;SDS011;16623;53.632;10.016;2022-09-09T06:52:59;17.02;;;11.63;;
29712;SDS011;16623;53.632;10.016;2022-09-09T06:55:25;16.40;;;11.80;;
29712;SDS011;16623;53.632;10.016;2022-09-09T06:57:50;13.95;;;10.80;;
29712;SDS011;16623;53.632;10.016;2022-09-09T07:00:16;16.50;;;11.13;;
29712;SDS011;16623;53.632;10.016;2022-09-09T07:02:43;21.15;;;10.50;;
29712;SDS011;16623;53.632;10.016;2022-09-09T07:05:09;16.23;;;10.07;;
29712;SDS011;16623;53.632;10.016;2022-09-09T07:07:34;17.63;;;10.32;;
29712;SDS011;16623;53.632;10.016;2022-09-09T07:10:01;16.42;;;9.75;;
29712;SDS011;16623;53.632;10.016;2022-09-09T07:12:28;10.32;;;9.07;;
29712;SDS011;16623;53.632;10.016;2022-09-09T07:14:54;15.68;;;9.93;;
29712;SDS011;16623;53.632;10.016;2022-09-09T07:17:20;12.93;;;9.23;;
29712;SDS011;16623;53.632;10.016;2022-09-09T07:19:45;12.68;;;8.85;;
29712;SDS011;16623;53.632;10.016;2022-09-09T07:22:11;16.95;;;8.73;;
29712;SDS011;16623;53.632;10.016;2022-09-09T07:24:36;12.48;;;8.18;;
29712;SDS011;16623;53.632;10.016;2022-09-09T07:27:02;12.10;;;8.35;;
29712;SDS011;16623;53.632;10.016;2022-09-09T07:29:28;15.88;;;8.57;;
29712;SDS011;16623;53.632;10.016;2022-09-09T07:31:54;19.10;;;9.45;;
29712;SDS011;16623;53.632;10.016;2022-09-09T07:34:19;15.68;;;8.40;;
29712;SDS011;16623;53.632;10.016;2022-09-09T07:36:45;13.55;;;8.70;;
29712;SDS011;16623;53.632;10.016;2022-09-09T07:39:13;14.27;;;6.97;;
29712;SDS011;16623;53.632;10.016;2022-09-09T07:41:41;15.13;;;9.52;;
29712;SDS011;16623;53.632;10.016;2022-09-09T07:44:08;12.80;;;9.15;;
29712;SDS011;16623;53.632;10.016;2022-09-09T07:46:38;11.93;;;7.30;;
29712;SDS011;16623;53.632;10.016;2022-09-09T07:49:06;12.38;;;7.28;;
29712;SDS011;16623;53.632;10.016;2022-09-09T07:51:34;13.93;;;8.05;;
29712;SDS011;16623;53.632;10.016;2022-09-09T07:54:02;12.00;;;7.22;;
29712;SDS011;16623;53.632;10.016;2022-09-09T07:56:30;16.42;;;7.15;;
29712;SDS011;16623;53.632;10.016;2022-09-09T07:58:56;12.23;;;6.55;;
29712;SDS011;16623;53.632;10.016;2022-09-09T08:01:27;11.90;;;6.90;;
29712;SDS011;16623;53.632;10.016;2022-09-09T08:03:56;11.00;;;6.60;;
29712;SDS011;16623;53.632;10.016;2022-09-09T08:06:26;9.13;;;5.70;;
29712;SDS011;16623;53.632;10.016;2022-09-09T08:08:53;10.55;;;6.88;;
29712;SDS011;16623;53.632;10.016;2022-09-09T08:11:20;12.55;;;7.25;;
29712;SDS011;16623;53.632;10.016;2022-09-09T08:13:48;11.02;;;6.53;;
29712;SDS011;16623;53.632;10.016;2022-09-09T08:16:15;12.20;;;7.40;;
29712;SDS011;16623;53.632;10.016;2022-09-09T08:18:43;9.75;;;6.00;;
29712;SDS011;16623;53.632;10.016;2022-09-09T08:23:40;9.93;;;6.28;;
29712;SDS011;16623;53.632;10.016;2022-09-09T08:26:13;10.45;;;5.65;;
29712;SDS011;16623;53.632;10.016;2022-09-09T08:28:41;11.73;;;5.40;;
29712;SDS011;16623;53.632;10.016;2022-09-09T08:31:12;10.57;;;6.70;;
29712;SDS011;16623;53.632;10.016;2022-09-09T08:33:39;9.77;;;5.40;;
29712;SDS011;16623;53.632;10.016;2022-09-09T08:36:06;14.95;;;5.88;;
29712;SDS011;16623;53.632;10.016;2022-09-09T08:38:34;10.15;;;5.80;;
29712;SDS011;16623;53.632;10.016;2022-09-09T08:41:03;10.45;;;5.30;;
29712;SDS011;16623;53.632;10.016;2022-09-09T08:43:51;8.68;;;5.30;;
29712;SDS011;16623;53.632;10.016;2022-09-09T08:46:27;9.80;;;5.38;;
29712;SDS011;16623;53.632;10.016;2022-09-09T08:49:20;13.38;;;6.80;;
29712;SDS011;16623;53.632;10.016;2022-09-09T08:51:55;10.27;;;5.45;;
29712;SDS011;16623;53.632;10.016;2022-09-09T08:54:24;11.80;;;4.68;;
29712;SDS011;16623;53.632;10.016;2022-09-09T08:56:58;7.20;;;4.25;;
29712;SDS011;16623;53.632;10.016;2022-09-09T08:59:23;8.98;;;4.57;;
29712;SDS011;16623;53.632;10.016;2022-09-09T09:01:53;7.65;;;4.78;;
29712;SDS011;16623;53.632;10.016;2022-09-09T09:04:46;9.25;;;5.13;;
29712;SDS011;16623;53.632;10.016;2022-09-09T09:07:27;9.02;;;5.05;;
29712;SDS011;16623;53.632;10.016;2022-09-09T09:12:53;13.88;;;5.53;;
29712;SDS011;16623;53.632;10.016;2022-09-09T09:15:21;7.38;;;4.65;;
29712;SDS011;16623;53.632;10.016;2022-09-09T09:17:50;10.57;;;5.40;;
29712;SDS011;16623;53.632;10.016;2022-09-09T09:20:21;8.30;;;4.65;;
29712;SDS011;16623;53.632;10.016;2022-09-09T09:23:24;15.07;;;5.30;;
29712;SDS011;16623;53.632;10.016;2022-09-09T09:25:56;12.20;;;4.97;;
29712;SDS011;16623;53.632;10.016;2022-09-09T09:28:26;11.15;;;5.60;;
29712;SDS011;16623;53.632;10.016;2022-09-09T09:31:03;16.48;;;4.35;;
29712;SDS011;16623;53.632;10.016;2022-09-09T09:36:15;11.35;;;4.30;;
29712;SDS011;16623;53.632;10.016;2022-09-09T09:38:55;8.52;;;4.25;;
29712;SDS011;16623;53.632;10.016;2022-09-09T09:41:30;7.47;;;3.88;;
29712;SDS011;16623;53.632;10.016;2022-09-09T09:46:23;7.43;;;4.30;;
29712;SDS011;16623;53.632;10.016;2022-09-09T09:48:57;14.38;;;4.93;;
29712;SDS011;16623;53.632;10.016;2022-09-09T09:51:23;7.35;;;3.80;;
29712;SDS011;16623;53.632;10.016;2022-09-09T09:53:49;8.32;;;3.88;;
29712;SDS011;16623;53.632;10.016;2022-09-09T09:56:17;7.32;;;3.35;;
29712;SDS011;16623;53.632;10.016;2022-09-09T09:58:53;14.63;;;3.30;;
29712;SDS011;16623;53.632;10.016;2022-09-09T10:01:29;2.83;;;2.15;;
29712;SDS011;16623;53.632;10.016;2022-09-09T10:03:59;7.55;;;2.50;;
29712;SDS011;16623;53.632;10.016;2022-09-09T10:06:45;16.98;;;3.90;;
29712;SDS011;16623;53.632;10.016;2022-09-09T10:09:21;8.40;;;3.35;;
29712;SDS011;16623;53.632;10.016;2022-09-09T10:12:14;8.43;;;2.45;;
29712;SDS011;16623;53.632;10.016;2022-09-09T10:26:31;6.78;;;1.33;;
29712;SDS011;16623;53.632;10.016;2022-09-09T10:29:08;8.18;;;1.63;;
29712;SDS011;16623;53.632;10.016;2022-09-09T10:32:02;4.97;;;1.70;;
29712;SDS011;16623;53.632;10.016;2022-09-09T10:35:09;5.75;;;1.83;;
29712;SDS011;16623;53.632;10.016;2022-09-09T10:37:43;5.80;;;1.92;;
29712;SDS011;16623;53.632;10.016;2022-09-09T10:40:33;5.82;;;1.48;;
29712;SDS011;16623;53.632;10.016;2022-09-09T10:43:15;3.53;;;1.40;;
29712;SDS011;16623;53.632;10.016;2022-09-09T10:51:44;4.07;;;1.30;;
29712;SDS011;16623;53.632;10.016;2022-09-09T10:57:27;4.80;;;1.50;;
29712;SDS011;16623;53.632;10.016;2022-09-09T11:00:03;4.05;;;1.40;;
29712;SDS011;16623;53.632;10.016;2022-09-09T11:02:32;5.68;;;1.92;;
29712;SDS011;16623;53.632;10.016;2022-09-09T11:05:08;3.05;;;1.30;;
29712;SDS011;16623;53.632;10.016;2022-09-09T11:07:41;7.85;;;1.75;;
29712;SDS011;16623;53.632;10.016;2022-09-09T11:10:17;4.57;;;1.42;;
29712;SDS011;16623;53.632;10.016;2022-09-09T11:12:46;5.30;;;1.55;;
29712;SDS011;16623;53.632;10.016;2022-09-09T11:15:15;4.47;;;1.58;;
29712;SDS011;16623;53.632;10.016;2022-09-09T11:17:49;5.38;;;1.65;;
29712;SDS011;16623;53.632;10.016;2022-09-09T11:20:19;4.80;;;1.75;;
29712;SDS011;16623;53.632;10.016;2022-09-09T11:22:56;3.38;;;1.45;;
29712;SDS011;16623;53.632;10.016;2022-09-09T11:25:30;3.60;;;1.35;;
29712;SDS011;16623;53.632;10.016;2022-09-09T11:28:11;3.58;;;1.30;;
29712;SDS011;16623;53.632;10.016;2022-09-09T11:33:31;3.28;;;1.30;;
29712;SDS011;16623;53.632;10.016;2022-09-09T11:42:04;8.45;;;1.45;;
29712;SDS011;16623;53.632;10.016;2022-09-09T11:44:31;4.78;;;1.60;;
29712;SDS011;16623;53.632;10.016;2022-09-09T11:46:57;5.03;;;1.45;;
29712;SDS011;16623;53.632;10.016;2022-09-09T11:49:27;4.80;;;1.35;;
29712;SDS011;16623;53.632;10.016;2022-09-09T11:52:10;7.97;;;2.65;;
29712;SDS011;16623;53.632;10.016;2022-09-09T11:54:44;6.35;;;1.73;;
29712;SDS011;16623;53.632;10.016;2022-09-09T11:57:23;5.18;;;1.50;;
29712;SDS011;16623;53.632;10.016;2022-09-09T11:59:57;5.93;;;2.03;;
29712;SDS011;16623;53.632;10.016;2022-09-09T12:02:24;4.72;;;1.20;;
29712;SDS011;16623;53.632;10.016;2022-09-09T12:07:30;2.45;;;1.23;;
29712;SDS011;16623;53.632;10.016;2022-09-09T12:12:55;4.88;;;1.80;;
29712;SDS011;16623;53.632;10.016;2022-09-09T12:15:32;4.35;;;1.40;;
29712;SDS011;16623;53.632;10.016;2022-09-09T12:17:58;5.80;;;1.88;;
29712;SDS011;16623;53.632;10.016;2022-09-09T12:23:19;3.05;;;1.45;;
29712;SDS011;16623;53.632;10.016;2022-09-09T12:28:40;7.68;;;2.03;;
29712;SDS011;16623;53.632;10.016;2022-09-09T12:31:18;4.47;;;1.50;;
29712;SDS011;16623;53.632;10.016;2022-09-09T12:33:46;6.00;;;1.35;;
29712;SDS011;16623;53.632;10.016;2022-09-09T12:36:29;2.92;;;1.20;;
29712;SDS011;16623;53.632;10.016;2022-09-09T12:41:35;7.00;;;1.30;;
29712;SDS011;16623;53.632;10.016;2022-09-09T12:44:08;3.97;;;1.23;;
29712;SDS011;16623;53.632;10.016;2022-09-09T12:46:39;4.60;;;1.73;;
29712;SDS011;16623;53.632;10.016;2022-09-09T12:51:56;4.93;;;1.60;;
29712;SDS011;16623;53.632;10.016;2022-09-09T12:54:22;2.95;;;1.55;;
29712;SDS011;16623;53.632;10.016;2022-09-09T12:56:48;2.92;;;1.60;;
29712;SDS011;16623;53.632;10.016;2022-09-09T12:59:24;5.32;;;1.90;;
29712;SDS011;16623;53.632;10.016;2022-09-09T13:02:11;10.27;;;2.80;;
29712;SDS011;16623;53.632;10.016;2022-09-09T13:04:42;6.95;;;2.45;;
29712;SDS011;16623;53.632;10.016;2022-09-09T13:07:10;7.53;;;2.63;;
29712;SDS011;16623;53.632;10.016;2022-09-09T13:09:37;7.13;;;2.42;;
29712;SDS011;16623;53.632;10.016;2022-09-09T13:12:04;4.25;;;1.92;;
29712;SDS011;16623;53.632;10.016;2022-09-09T13:14:32;10.65;;;2.50;;
29712;SDS011;16623;53.632;10.016;2022-09-09T13:17:03;5.18;;;2.60;;
29712;SDS011;16623;53.632;10.016;2022-09-09T13:19:32;6.03;;;2.35;;
29712;SDS011;16623;53.632;10.016;2022-09-09T13:24:58;7.70;;;2.40;;
29712;SDS011;16623;53.632;10.016;2022-09-09T13:29:57;4.80;;;2.30;;
29712;SDS011;16623;53.632;10.016;2022-09-09T13:32:23;6.75;;;2.60;;
29712;SDS011;16623;53.632;10.016;2022-09-09T13:34:52;4.63;;;2.55;;
29712;SDS011;16623;53.632;10.016;2022-09-09T13:37:32;7.50;;;3.17;;
29712;SDS011;16623;53.632;10.016;2022-09-09T13:40:03;6.95;;;2.55;;
29712;SDS011;16623;53.632;10.016;2022-09-09T13:42:35;7.18;;;2.80;;
29712;SDS011;16623;53.632;10.016;2022-09-09T13:45:03;9.27;;;3.95;;
29712;SDS011;16623;53.632;10.016;2022-09-09T13:50:09;9.00;;;3.70;;
29712;SDS011;16623;53.632;10.016;2022-09-09T13:52:53;11.75;;;3.90;;
29712;SDS011;16623;53.632;10.016;2022-09-09T13:55:24;8.52;;;3.55;;
29712;SDS011;16623;53.632;10.016;2022-09-09T13:57:55;11.30;;;3.92;;
29712;SDS011;16623;53.632;10.016;2022-09-09T14:00:26;5.50;;;2.63;;
29712;SDS011;16623;53.632;10.016;2022-09-09T14:02:54;7.95;;;2.92;;
29712;SDS011;16623;53.632;10.016;2022-09-09T14:05:20;10.95;;;5.32;;
29712;SDS011;16623;53.632;10.016;2022-09-09T14:07:47;7.80;;;3.35;;
29712;SDS011;16623;53.632;10.016;2022-09-09T14:10:13;6.40;;;3.03;;
29712;SDS011;16623;53.632;10.016;2022-09-09T14:12:39;9.10;;;3.25;;
29712;SDS011;16623;53.632;10.016;2022-09-09T14:15:05;5.60;;;3.58;;
29712;SDS011;16623;53.632;10.016;2022-09-09T14:17:33;11.07;;;3.42;;
29712;SDS011;16623;53.632;10.016;2022-09-09T14:19:58;7.80;;;3.67;;
29712;SDS011;16623;53.632;10.016;2022-09-09T14:22:24;6.28;;;3.28;;
29712;SDS011;16623;53.632;10.016;2022-09-09T14:24:51;8.85;;;3.85;;
29712;SDS011;16623;53.632;10.016;2022-09-09T14:27:17;7.05;;;3.42;;
29712;SDS011;16623;53.632;10.016;2022-09-09T14:29:45;7.95;;;3.80;;
29712;SDS011;16623;53.632;10.016;2022-09-09T14:32:11;7.53;;;4.50;;
29712;SDS011;16623;53.632;10.016;2022-09-09T14:34:37;9.05;;;3.72;;
29712;SDS011;16623;53.632;10.016;2022-09-09T14:37:03;8.20;;;3.75;;
29712;SDS011;16623;53.632;10.016;2022-09-09T14:39:28;7.38;;;4.40;;
29712;SDS011;16623;53.632;10.016;2022-09-09T14:41:54;9.40;;;4.53;;
29712;SDS011;16623;53.632;10.016;2022-09-09T14:44:20;9.65;;;4.57;;
29712;SDS011;16623;53.632;10.016;2022-09-09T14:46:49;11.02;;;6.30;;
29712;SDS011;16623;53.632;10.016;2022-09-09T14:49:15;9.57;;;6.30;;
29712;SDS011;16623;53.632;10.016;2022-09-09T14:51:41;9.98;;;6.50;;
29712;SDS011;16623;53.632;10.016;2022-09-09T14:54:06;12.50;;;6.20;;
29712;SDS011;16623;53.632;10.016;2022-09-09T14:56:32;9.57;;;4.88;;
29712;SDS011;16623;53.632;10.016;2022-09-09T14:59:01;10.27;;;4.88;;
29712;SDS011;16623;53.632;10.016;2022-09-09T15:01:27;6.38;;;3.13;;
29712;SDS011;16623;53.632;10.016;2022-09-09T15:03:56;5.78;;;2.33;;
29712;SDS011;16623;53.632;10.016;2022-09-09T15:06:23;5.15;;;2.17;;
29712;SDS011;16623;53.632;10.016;2022-09-09T15:08:50;5.80;;;2.33;;
29712;SDS011;16623;53.632;10.016;2022-09-09T15:11:17;4.50;;;2.65;;
29712;SDS011;16623;53.632;10.016;2022-09-09T15:13:43;5.40;;;2.60;;
29712;SDS011;16623;53.632;10.016;2022-09-09T15:16:16;7.38;;;3.92;;
29712;SDS011;16623;53.632;10.016;2022-09-09T15:18:44;6.57;;;3.20;;
29712;SDS011;16623;53.632;10.016;2022-09-09T15:21:15;6.88;;;2.75;;
29712;SDS011;16623;53.632;10.016;2022-09-09T15:23:42;5.43;;;3.53;;
29712;SDS011;16623;53.632;10.016;2022-09-09T15:26:09;8.55;;;3.17;;
29712;SDS011;16623;53.632;10.016;2022-09-09T15:28:35;8.18;;;4.03;;
29712;SDS011;16623;53.632;10.016;2022-09-09T15:33:34;11.30;;;3.30;;
29712;SDS011;16623;53.632;10.016;2022-09-09T15:36:24;7.18;;;3.35;;
29712;SDS011;16623;53.632;10.016;2022-09-09T15:38:49;10.52;;;3.20;;
29712;SDS011;16623;53.632;10.016;2022-09-09T15:41:16;9.70;;;3.25;;
29712;SDS011;16623;53.632;10.016;2022-09-09T15:43:47;5.07;;;2.95;;
29712;SDS011;16623;53.632;10.016;2022-09-09T15:46:36;9.23;;;3.05;;
29712;SDS011;16623;53.632;10.016;2022-09-09T15:51:35;12.45;;;3.78;;
29712;SDS011;16623;53.632;10.016;2022-09-09T15:54:02;6.25;;;2.55;;
29712;SDS011;16623;53.632;10.016;2022-09-09T15:56:29;5.75;;;2.50;;
29712;SDS011;16623;53.632;10.016;2022-09-09T15:58:57;4.47;;;2.22;;
29712;SDS011;16623;53.632;10.016;2022-09-09T16:01:24;4.38;;;2.40;;
29712;SDS011;16623;53.632;10.016;2022-09-09T16:03:51;5.03;;;2.50;;
29712;SDS011;16623;53.632;10.016;2022-09-09T16:06:18;5.90;;;2.75;;
29712;SDS011;16623;53.632;10.016;2022-09-09T16:08:46;4.75;;;2.13;;
29712;SDS011;16623;53.632;10.016;2022-09-09T16:11:16;4.57;;;2.17;;
29712;SDS011;16623;53.632;10.016;2022-09-09T16:13:45;3.67;;;2.13;;
29712;SDS011;16623;53.632;10.016;2022-09-09T16:16:11;4.15;;;2.20;;
29712;SDS011;16623;53.632;10.016;2022-09-09T16:18:45;7.85;;;2.88;;
29712;SDS011;16623;53.632;10.016;2022-09-09T16:21:13;5.18;;;3.20;;